createdAt,value
2023-01-11T00:00:18.697Z,92915.56
2023-01-11T00:02:45.931Z,92909.56
2023-01-11T00:05:12.481Z,92908.69
2023-01-11T00:07:40.934Z,92899.31
2023-01-11T00:10:08.589Z,92898.38
2023-01-11T00:12:35.001Z,92905.75
2023-01-11T00:15:01.526Z,92911.94
2023-01-11T00:17:29.200Z,92904.50
2023-01-11T00:19:55.675Z,92910.50
2023-01-11T00:22:22.322Z,92915.28
2023-01-11T00:24:48.846Z,92911.47
2023-01-11T00:27:15.284Z,92901.88
2023-01-11T00:29:41.742Z,92898.25
2023-01-11T00:32:08.572Z,92893.88
2023-01-11T00:34:35.022Z,92892.63
2023-01-11T00:37:01.818Z,92890.63
2023-01-11T00:39:28.409Z,92896.63
2023-01-11T00:42:13.455Z,92884.63
2023-01-11T00:44:58.342Z,92874.84
2023-01-11T00:47:43.291Z,92872.22
2023-01-11T00:50:10.355Z,92876.28
2023-01-11T00:52:36.882Z,92870.50
2023-01-11T00:55:03.495Z,92866.31
2023-01-11T00:57:29.930Z,92862.72
2023-01-11T00:59:56.377Z,92858.28
2023-01-11T01:02:22.878Z,92861.84
2023-01-11T01:04:49.615Z,92866.25
2023-01-11T01:07:16.120Z,92867.13
2023-01-11T01:09:42.542Z,92869.44
2023-01-11T01:12:09.277Z,92859.97
2023-01-11T01:14:36.668Z,92861.88
2023-01-11T01:17:08.426Z,92856.16
2023-01-11T01:19:38.845Z,92845.50
2023-01-11T01:22:05.716Z,92858.03
2023-01-11T01:24:33.169Z,92849.22
2023-01-11T01:26:59.840Z,92854.78
2023-01-11T01:29:26.391Z,92853.53
2023-01-11T01:31:52.825Z,92847.91
2023-01-11T01:34:19.347Z,92853.91
2023-01-11T01:36:45.801Z,92854.63
2023-01-11T01:39:13.066Z,92850.91
2023-01-11T01:41:39.649Z,92851.84
2023-01-11T01:44:44.392Z,92848.81
2023-01-11T01:47:11.874Z,92850.38
2023-01-11T01:49:38.757Z,92856.16
2023-01-11T01:52:05.576Z,92853.13
2023-01-11T01:54:39.277Z,92847.47
2023-01-11T01:57:11.904Z,92851.53
2023-01-11T01:59:38.384Z,92842.47
2023-01-11T02:02:04.959Z,92844.25
2023-01-11T02:04:41.385Z,92840.31
2023-01-11T02:07:13.309Z,92839.75
2023-01-11T02:09:52.813Z,92846.06
2023-01-11T02:12:19.576Z,92838.28
2023-01-11T02:14:47.787Z,92841.91
2023-01-11T02:17:14.799Z,92842.91
2023-01-11T02:19:51.063Z,92842.09
2023-01-11T02:22:45.151Z,92839.94
2023-01-11T02:25:53.963Z,92839.28
2023-01-11T02:28:34.376Z,92830.47
2023-01-11T02:31:14.372Z,92832.50
2023-01-11T02:33:56.694Z,92821.28
2023-01-11T02:36:35.033Z,92821.75
2023-01-11T02:39:15.022Z,92815.88
2023-01-11T02:42:12.900Z,92810.91
2023-01-11T02:45:03.155Z,92815.53
2023-01-11T02:47:44.005Z,92818.94
2023-01-11T02:50:30.027Z,92819.34
2023-01-11T02:53:23.411Z,92804.19
2023-01-11T02:55:54.233Z,92804.19
2023-01-11T02:58:24.697Z,92800.56
2023-01-11T03:00:55.570Z,92807.81
2023-01-11T03:03:30.637Z,92804.19
2023-01-11T03:06:17.281Z,92790.19
2023-01-11T03:09:08.483Z,92793.34
2023-01-11T03:12:18.429Z,92785.22
2023-01-11T03:15:04.054Z,92783.38
2023-01-11T03:17:57.089Z,92781.44
2023-01-11T03:20:38.422Z,92774.25
2023-01-11T03:23:34.483Z,92775.59
2023-01-11T03:26:21.027Z,92777.53
2023-01-11T03:29:05.747Z,92769.38
2023-01-11T03:31:40.357Z,92774.13
2023-01-11T03:34:22.032Z,92769.16
2023-01-11T03:37:17.877Z,92770.50
2023-01-11T03:40:04.180Z,92768.94
2023-01-11T03:42:34.412Z,92766.47
2023-01-11T03:45:02.864Z,92760.00
2023-01-11T03:47:30.549Z,92760.81
2023-01-11T03:50:06.511Z,92759.16
2023-01-11T03:52:37.241Z,92755.97
2023-01-11T03:55:09.128Z,92754.03
2023-01-11T03:57:40.713Z,92765.22
2023-01-11T04:00:09.077Z,92757.22
2023-01-11T04:02:44.293Z,92761.59
2023-01-11T04:05:11.769Z,92762.53
2023-01-11T04:07:38.442Z,92764.09
2023-01-11T04:10:05.442Z,92766.81
2023-01-11T04:12:31.869Z,92763.81
2023-01-11T04:14:58.340Z,92764.13
2023-01-11T04:17:24.817Z,92756.09
2023-01-11T04:19:51.218Z,92755.53
2023-01-11T04:22:17.664Z,92751.69
2023-01-11T04:24:44.138Z,92755.22
2023-01-11T04:27:10.585Z,92757.94
2023-01-11T04:29:36.975Z,92745.94
2023-01-11T04:32:03.681Z,92753.16
2023-01-11T04:34:30.192Z,92756.94
2023-01-11T04:36:56.604Z,92750.47
2023-01-11T04:39:23.079Z,92749.78
2023-01-11T04:42:07.997Z,92740.16
2023-01-11T04:44:34.409Z,92740.88
2023-01-11T04:47:00.832Z,92736.44
2023-01-11T04:49:27.254Z,92746.41
2023-01-11T04:51:53.715Z,92729.53
2023-01-11T04:54:20.207Z,92722.84
2023-01-11T04:56:46.671Z,92725.47
2023-01-11T04:59:13.858Z,92725.81
2023-01-11T05:01:40.281Z,92722.19
2023-01-11T05:04:06.984Z,92721.84
2023-01-11T05:06:33.669Z,92720.25
2023-01-11T05:09:00.126Z,92718.56
2023-01-11T05:11:26.551Z,92714.16
2023-01-11T05:13:52.998Z,92713.34
2023-01-11T05:16:23.677Z,92706.09
2023-01-11T05:18:56.009Z,92704.88
2023-01-11T05:21:29.268Z,92700.78
2023-01-11T05:23:55.717Z,92713.56
2023-01-11T05:26:24.874Z,92721.50
2023-01-11T05:28:52.239Z,92710.63
2023-01-11T05:31:19.131Z,92711.31
2023-01-11T05:33:45.582Z,92718.16
2023-01-11T05:36:15.193Z,92718.97
2023-01-11T05:38:41.965Z,92714.75
2023-01-11T05:41:10.746Z,92713.22
2023-01-11T05:43:57.685Z,92720.44
2023-01-11T05:46:24.755Z,92704.72
2023-01-11T05:48:51.985Z,92714.81
2023-01-11T05:51:18.425Z,92726.59
2023-01-11T05:53:44.929Z,92715.69
2023-01-11T05:56:11.381Z,92683.16
2023-01-11T05:58:37.880Z,92695.00
2023-01-11T06:01:06.796Z,92688.28
2023-01-11T06:03:33.334Z,92697.00
2023-01-11T06:06:00.207Z,92696.31
2023-01-11T06:08:26.671Z,92689.03
2023-01-11T06:10:54.765Z,92695.56
2023-01-11T06:13:27.445Z,92692.41
2023-01-11T06:15:58.255Z,92693.22
2023-01-11T06:18:24.710Z,92696.59
2023-01-11T06:20:52.980Z,92687.03
2023-01-11T06:23:20.314Z,92694.38
2023-01-11T06:25:47.151Z,92702.00
2023-01-11T06:28:14.031Z,92688.72
2023-01-11T06:30:41.243Z,92685.53
2023-01-11T06:33:08.121Z,92699.94
2023-01-11T06:35:41.732Z,92695.75
2023-01-11T06:38:10.533Z,92685.84
2023-01-11T06:40:38.259Z,92689.03
2023-01-11T06:43:05.194Z,92667.66
2023-01-11T06:45:32.401Z,92667.66
2023-01-11T06:47:59.466Z,92666.56
2023-01-11T06:50:26.638Z,92647.09
2023-01-11T06:52:54.701Z,92658.63
2023-01-11T06:55:22.646Z,92673.53
2023-01-11T06:57:49.139Z,92663.56
2023-01-11T07:00:17.117Z,92667.50
2023-01-11T07:02:44.486Z,92668.31
2023-01-11T07:05:12.006Z,92649.94
2023-01-11T07:07:40.189Z,92674.06
2023-01-11T07:10:09.120Z,92658.25
2023-01-11T07:12:36.391Z,92640.84
2023-01-11T07:15:05.031Z,92644.47
2023-01-11T07:17:31.906Z,92649.78
2023-01-11T07:19:58.462Z,92653.69
2023-01-11T07:22:24.941Z,92658.16
2023-01-11T07:24:51.807Z,92649.03
2023-01-11T07:27:20.162Z,92658.69
2023-01-11T07:29:47.266Z,92645.66
2023-01-11T07:32:13.908Z,92647.72
2023-01-11T07:34:40.408Z,92657.97
2023-01-11T07:37:09.473Z,92646.41
2023-01-11T07:39:55.165Z,92644.06
2023-01-11T07:42:40.110Z,92649.59
2023-01-11T07:45:07.197Z,92645.53
2023-01-11T07:47:33.691Z,92659.06
2023-01-11T07:50:00.128Z,92654.63
2023-01-11T07:52:26.606Z,92658.28
2023-01-11T07:54:53.075Z,92665.06
2023-01-11T07:57:19.518Z,92663.81
2023-01-11T07:59:45.938Z,92666.19
2023-01-11T08:02:12.357Z,92667.78
2023-01-11T08:04:38.787Z,92662.06
2023-01-11T08:07:05.264Z,92657.16
2023-01-11T08:09:31.771Z,92668.94
2023-01-11T08:12:16.807Z,92678.81
2023-01-11T08:14:43.443Z,92680.41
2023-01-11T08:17:18.950Z,92678.34
2023-01-11T08:19:45.369Z,92666.94
2023-01-11T08:22:12.326Z,92675.81
2023-01-11T08:24:38.734Z,92673.38
2023-01-11T08:27:05.391Z,92675.44
2023-01-11T08:29:32.375Z,92685.34
2023-01-11T08:31:59.427Z,92683.38
2023-01-11T08:34:27.643Z,92688.03
2023-01-11T08:36:56.592Z,92687.47
2023-01-11T08:39:24.321Z,92681.09
2023-01-11T08:41:50.761Z,92671.44
2023-01-11T08:44:25.490Z,92667.06
2023-01-11T08:46:55.626Z,92664.69
2023-01-11T08:49:22.080Z,92661.78
2023-01-11T08:51:48.474Z,92672.03
2023-01-11T08:54:15.239Z,92676.84
2023-01-11T08:56:41.714Z,92678.75
2023-01-11T08:59:10.346Z,92670.72
2023-01-11T09:01:36.875Z,92671.13
2023-01-11T09:04:09.377Z,92673.66
2023-01-11T09:06:42.134Z,92663.31
2023-01-11T09:09:08.587Z,92680.63
2023-01-11T09:11:53.701Z,92687.75
2023-01-11T09:14:21.602Z,92679.38
2023-01-11T09:16:48.808Z,92680.16
2023-01-11T09:19:15.400Z,92681.50
2023-01-11T09:21:41.963Z,92690.13
2023-01-11T09:24:08.638Z,92691.25
2023-01-11T09:26:35.775Z,92687.19
2023-01-11T09:29:02.294Z,92706.56
2023-01-11T09:31:28.819Z,92683.19
2023-01-11T09:33:55.360Z,92681.69
2023-01-11T09:36:23.519Z,92682.63
2023-01-11T09:38:52.685Z,92685.91
2023-01-11T09:41:33.101Z,92683.47
2023-01-11T09:44:14.258Z,92679.94
2023-01-11T09:46:45.060Z,92700.59
2023-01-11T09:49:31.431Z,92679.56
2023-01-11T09:52:23.751Z,92701.09
2023-01-11T09:54:51.213Z,92690.09
2023-01-11T09:57:27.918Z,92704.75
2023-01-11T10:00:06.686Z,92690.50
2023-01-11T10:02:59.165Z,92697.63
2023-01-11T10:05:36.503Z,92700.66
2023-01-11T10:18:37.595Z,92685.22
2023-01-11T10:18:39.150Z,92684.81
2023-01-11T10:20:27.629Z,92689.28
2023-01-11T10:23:05.021Z,92670.00
2023-01-11T10:25:41.414Z,92676.00
2023-01-11T10:28:23.099Z,92677.31
2023-01-11T10:30:58.055Z,92678.41
2023-01-11T10:34:02.267Z,92666.94
2023-01-11T10:37:10.942Z,92678.41
2023-01-11T10:40:01.737Z,92672.19
2023-01-11T10:42:32.197Z,92663.69
2023-01-11T10:45:18.222Z,92660.03
2023-01-11T10:48:01.287Z,92669.41
2023-01-11T10:50:38.512Z,92662.91
2023-01-11T10:53:19.499Z,92665.66
2023-01-11T10:55:57.609Z,92672.38
2023-01-11T10:58:44.140Z,92665.34
2023-01-11T11:01:28.467Z,92660.56
2023-01-11T11:04:16.234Z,92661.72
2023-01-11T11:07:08.811Z,92663.69
2023-01-11T11:10:09.711Z,92666.16
2023-01-11T11:12:41.671Z,92660.38
2023-01-11T11:15:27.430Z,92654.09
2023-01-11T11:17:54.638Z,92659.63
2023-01-11T11:20:29.616Z,92658.91
2023-01-11T11:22:57.445Z,92658.13
2023-01-11T11:25:33.201Z,92657.59
2023-01-11T11:28:08.360Z,92662.22
2023-01-11T11:30:38.251Z,92653.56
2023-01-11T11:33:15.348Z,92647.03
2023-01-11T11:35:46.228Z,92656.88
2023-01-11T11:38:24.310Z,92668.56
2023-01-11T11:41:04.179Z,92659.47
2023-01-11T11:43:32.282Z,92655.22
2023-01-11T11:46:19.877Z,92638.97
2023-01-11T11:49:13.074Z,92637.72
2023-01-11T11:51:41.141Z,92648.19
2023-01-11T11:54:32.799Z,92648.53
2023-01-11T11:57:14.338Z,92651.56
2023-01-11T11:59:47.207Z,92654.41
2023-01-11T12:02:31.431Z,92631.41
2023-01-11T12:05:00.386Z,92641.19
2023-01-11T12:07:54.199Z,92645.19
2023-01-11T12:10:24.447Z,92631.56
2023-01-11T12:12:53.866Z,92638.38
2023-01-11T12:15:23.155Z,92626.38
2023-01-11T12:17:50.214Z,92630.84
2023-01-11T12:20:22.685Z,92622.72
2023-01-11T12:23:24.114Z,92627.41
2023-01-11T12:26:15.472Z,92620.38
2023-01-11T12:29:26.868Z,92619.06
2023-01-11T12:32:11.529Z,92617.59
2023-01-11T12:35:04.253Z,92613.03
2023-01-11T12:37:49.494Z,92615.91
2023-01-11T12:40:34.241Z,92620.91
2023-01-11T12:43:06.689Z,92621.41
2023-01-11T12:45:51.911Z,92624.72
2023-01-11T12:48:36.270Z,92613.56
2023-01-11T12:51:26.955Z,92631.72
2023-01-11T12:54:09.746Z,92645.69
2023-01-11T12:57:14.041Z,92632.59
2023-01-11T13:00:18.030Z,92633.00
2023-01-11T13:03:26.502Z,92630.53
2023-01-11T13:06:11.141Z,92636.25
2023-01-11T13:08:56.194Z,92631.63
2023-01-11T13:11:51.041Z,92626.31
2023-01-11T13:14:47.360Z,92631.72
2023-01-11T13:17:36.882Z,92630.91
2023-01-11T13:20:13.976Z,92629.47
2023-01-11T13:22:46.768Z,92631.03
2023-01-11T13:25:21.493Z,92638.34
2023-01-11T13:27:50.513Z,92641.38
2023-01-11T13:30:19.850Z,92632.59
2023-01-11T13:32:56.752Z,92633.69
2023-01-11T13:35:36.768Z,92636.81
2023-01-11T13:38:25.456Z,92634.22
2023-01-11T13:40:55.224Z,92643.84
2023-01-11T13:43:33.104Z,92649.03
2023-01-11T13:46:06.828Z,92664.50
2023-01-11T13:49:11.662Z,92660.22
2023-01-11T13:51:59.070Z,92663.88
2023-01-11T13:54:27.461Z,92663.88
2023-01-11T13:57:25.969Z,92664.91
2023-01-11T14:00:05.022Z,92669.59
2023-01-11T14:03:30.989Z,92673.25
2023-01-11T14:06:23.436Z,92671.00
2023-01-11T14:09:08.628Z,92674.16
2023-01-11T14:12:03.481Z,92673.94
2023-01-11T14:15:00.328Z,92680.75
2023-01-11T14:17:29.547Z,92677.97
2023-01-11T14:20:07.795Z,92675.50
2023-01-11T14:22:37.255Z,92695.13
2023-01-11T14:25:24.573Z,92685.41
2023-01-11T14:28:13.778Z,92691.97
2023-01-11T14:30:55.139Z,92693.81
2023-01-11T14:33:39.140Z,92704.72
2023-01-11T14:36:11.822Z,92712.19
2023-01-11T14:38:51.011Z,92714.44
2023-01-11T14:41:26.479Z,92718.88
2023-01-11T14:44:23.413Z,92723.84
2023-01-11T14:47:53.600Z,92735.81
2023-01-11T14:50:47.599Z,92748.66
2023-01-11T14:53:21.339Z,92761.38
2023-01-11T14:55:49.169Z,92752.75
2023-01-11T14:58:26.315Z,92776.00
2023-01-11T15:00:55.805Z,92766.19
2023-01-11T15:03:22.363Z,92774.03
2023-01-11T15:05:57.794Z,92777.59
2023-01-11T15:08:40.634Z,92778.69
2023-01-11T15:11:32.613Z,92791.66
2023-01-11T15:14:05.131Z,92796.66
2023-01-11T15:16:53.794Z,92796.19
2023-01-11T15:19:33.889Z,92797.44
2023-01-11T15:22:02.756Z,92803.31
2023-01-11T15:24:29.182Z,92806.50
2023-01-11T15:26:59.676Z,92814.53
2023-01-11T15:29:27.767Z,92823.25
2023-01-11T15:31:54.304Z,92815.66
2023-01-11T15:34:20.719Z,92820.00
2023-01-11T15:37:03.456Z,92836.00
2023-01-11T15:39:51.159Z,92834.88
2023-01-11T15:42:26.726Z,92834.19
2023-01-11T15:45:24.968Z,92846.44
2023-01-11T15:48:00.362Z,92847.56
2023-01-11T15:51:05.265Z,92849.16
2023-01-11T15:54:06.335Z,92856.44
2023-01-11T15:57:00.674Z,92854.38
2023-01-11T15:59:41.070Z,92858.94
2023-01-11T16:02:11.083Z,92860.19
2023-01-11T16:04:46.638Z,92864.25
2023-01-11T16:07:22.367Z,92864.72
2023-01-11T16:10:27.817Z,92885.59
2023-01-11T16:13:17.302Z,92883.28
2023-01-11T16:16:11.687Z,92881.72
2023-01-11T16:18:43.990Z,92889.22
2023-01-11T16:21:30.793Z,92890.78
2023-01-11T16:23:57.509Z,92899.63
2023-01-11T16:26:24.168Z,92906.66
2023-01-11T16:28:54.815Z,92896.44
2023-01-11T16:31:21.565Z,92908.69
2023-01-11T16:33:49.777Z,92911.06
2023-01-11T16:36:21.158Z,92916.28
2023-01-11T16:39:18.376Z,92921.28
2023-01-11T16:42:05.865Z,92923.97
2023-01-11T16:45:01.378Z,92923.09
2023-01-11T16:47:27.898Z,92923.97
2023-01-11T16:50:19.724Z,92933.94
2023-01-11T16:52:54.364Z,92940.19
2023-01-11T16:55:25.507Z,92944.06
2023-01-11T16:57:54.708Z,92947.22
2023-01-11T17:00:27.678Z,92949.94
2023-01-11T17:03:18.699Z,92954.56
2023-01-11T17:06:08.523Z,92958.88
2023-01-11T17:08:56.431Z,92956.16
2023-01-11T17:11:39.407Z,92962.97
2023-01-11T17:14:30.505Z,92954.56
2023-01-11T17:17:00.244Z,92959.56
2023-01-11T17:19:30.379Z,92960.72
2023-01-11T17:21:59.909Z,92973.59
2023-01-11T17:24:27.264Z,92980.19
2023-01-11T17:26:56.713Z,92995.38
2023-01-11T17:29:28.883Z,92994.22
2023-01-11T17:31:56.977Z,92996.94
2023-01-11T17:34:35.583Z,92991.53
2023-01-11T17:37:10.230Z,93005.69
2023-01-11T17:39:42.595Z,93003.53
2023-01-11T17:42:31.954Z,93001.97
2023-01-11T17:45:15.726Z,93010.34
2023-01-11T17:47:45.721Z,93016.03
2023-01-11T17:50:31.993Z,93008.75
2023-01-11T17:53:06.413Z,93003.66
2023-01-11T17:55:33.505Z,93006.94
2023-01-11T17:58:19.453Z,93012.75
2023-01-11T18:01:13.719Z,93013.88
2023-01-11T18:03:45.490Z,93011.25
2023-01-11T18:06:30.843Z,93012.03
2023-01-11T18:08:59.202Z,93014.06
2023-01-11T18:11:35.915Z,93009.88
2023-01-11T18:14:08.414Z,93018.94
2023-01-11T18:16:35.043Z,93013.31
2023-01-11T18:19:21.185Z,93024.03
2023-01-11T18:21:52.591Z,93030.81
2023-01-11T18:24:29.323Z,93022.31
2023-01-11T18:27:06.895Z,93024.56
2023-01-11T18:29:36.313Z,93026.41
2023-01-11T18:32:08.716Z,93032.47
2023-01-11T18:34:35.140Z,93036.09
2023-01-11T18:37:03.244Z,93040.88
2023-01-11T18:39:29.813Z,93043.09
2023-01-11T18:42:08.586Z,93048.72
2023-01-11T18:44:43.439Z,93047.13
2023-01-11T18:47:15.019Z,93049.28
2023-01-11T18:49:41.500Z,93050.75
2023-01-11T18:52:08.086Z,93046.22
2023-01-11T18:54:34.808Z,93043.97
2023-01-11T18:57:01.677Z,93042.75
2023-01-11T18:59:28.211Z,93057.13
2023-01-11T19:02:16.069Z,93065.53
2023-01-11T19:04:43.443Z,93062.56
2023-01-11T19:07:10.584Z,93066.63
2023-01-11T19:09:37.141Z,93059.03
2023-01-11T19:12:04.137Z,93056.06
2023-01-11T19:14:30.573Z,93055.84
2023-01-11T19:16:57.135Z,93056.06
2023-01-11T19:19:23.670Z,93064.75
2023-01-11T19:21:50.129Z,93073.44
2023-01-11T19:24:16.615Z,93066.72
2023-01-11T19:26:43.116Z,93068.91
2023-01-11T19:29:09.598Z,93078.28
2023-01-11T19:31:36.062Z,93075.63
2023-01-11T19:34:02.598Z,93082.78
2023-01-11T19:36:32.062Z,93085.16
2023-01-11T19:38:58.542Z,93076.50
2023-01-11T19:41:25.015Z,93069.25
2023-01-11T19:43:51.543Z,93064.28
2023-01-11T19:46:30.629Z,93066.16
2023-01-11T19:48:57.842Z,93058.56
2023-01-11T19:51:24.259Z,93068.97
2023-01-11T19:53:50.721Z,93071.44
2023-01-11T19:56:17.130Z,93064.69
2023-01-11T19:58:43.637Z,93073.91
2023-01-11T20:01:11.631Z,93072.72
2023-01-11T20:03:40.775Z,93075.16
2023-01-11T20:06:08.255Z,93073.78
2023-01-11T20:08:38.365Z,93074.59
2023-01-11T20:11:06.949Z,93082.41
2023-01-11T20:13:33.585Z,93082.59
2023-01-11T20:16:07.407Z,93094.09
2023-01-11T20:18:34.535Z,93088.97
2023-01-11T20:21:01.319Z,93098.94
2023-01-11T20:23:30.476Z,93096.09
2023-01-11T20:26:05.281Z,93104.72
2023-01-11T20:28:32.160Z,93093.72
2023-01-11T20:31:01.944Z,93097.34
2023-01-11T20:33:28.606Z,93108.75
2023-01-11T20:35:55.006Z,93111.72
2023-01-11T20:38:21.459Z,93105.00
2023-01-11T20:40:47.975Z,93099.38
2023-01-11T20:43:14.420Z,93107.00
2023-01-11T20:45:40.932Z,93092.97
2023-01-11T20:48:07.546Z,93091.38
2023-01-11T20:50:35.442Z,93101.78
2023-01-11T20:53:02.652Z,93105.84
2023-01-11T20:55:29.116Z,93111.03
2023-01-11T20:57:55.657Z,93099.47
2023-01-11T21:00:22.330Z,93101.13
2023-01-11T21:02:49.655Z,93101.75
2023-01-11T21:05:16.628Z,93100.59
2023-01-11T21:07:43.054Z,93102.84
2023-01-11T21:10:10.104Z,93103.03
2023-01-11T21:15:03.082Z,93115.16
2023-01-11T21:17:29.664Z,93107.38
2023-01-11T21:19:56.114Z,93098.78
2023-01-11T21:22:22.580Z,93117.19
2023-01-11T21:24:49.021Z,93120.81
2023-01-11T21:27:15.497Z,93112.63
2023-01-11T21:29:41.972Z,93110.72
2023-01-11T21:32:08.408Z,93113.31
2023-01-11T21:34:34.908Z,93111.06
2023-01-11T21:37:01.343Z,93115.22
2023-01-11T21:39:27.747Z,93113.28
2023-01-11T21:42:01.100Z,93113.47
2023-01-11T21:44:33.348Z,93104.28
2023-01-11T21:47:01.643Z,93109.09
2023-01-11T21:49:28.187Z,93114.06
2023-01-11T21:51:54.782Z,93113.66
2023-01-11T21:54:21.274Z,93106.69
2023-01-11T21:56:48.934Z,93112.09
2023-01-11T21:59:15.891Z,93110.28
2023-01-11T22:01:45.154Z,93113.28
2023-01-11T22:04:14.077Z,93108.06
2023-01-11T22:06:50.749Z,93114.47
2023-01-11T22:09:17.623Z,93112.09
2023-01-11T22:11:44.094Z,93102.69
2023-01-11T22:14:10.686Z,93094.69
2023-01-11T22:16:37.266Z,93104.50
2023-01-11T22:19:08.903Z,93100.91
2023-01-11T22:21:36.891Z,93098.53
2023-01-11T22:24:05.257Z,93099.94
2023-01-11T22:26:33.553Z,93094.75
2023-01-11T22:29:12.170Z,93100.78
2023-01-11T22:31:55.348Z,93102.97
2023-01-11T22:34:22.521Z,93111.59
2023-01-11T22:36:49.317Z,93108.81
2023-01-11T22:39:16.721Z,93121.22
2023-01-11T22:41:45.476Z,93125.41
2023-01-11T22:44:12.384Z,93129.44
2023-01-11T22:46:38.901Z,93142.00
2023-01-11T22:49:08.546Z,93135.06
2023-01-11T22:51:35.795Z,93134.69
2023-01-11T22:54:03.583Z,93122.06
2023-01-11T22:56:30.599Z,93118.44
2023-01-11T22:58:57.451Z,93130.63
2023-01-11T23:01:29.572Z,93122.25
2023-01-11T23:03:57.223Z,93125.66
2023-01-11T23:06:25.343Z,93123.41
2023-01-11T23:08:52.720Z,93120.59
2023-01-11T23:11:40.720Z,93105.06
2023-01-11T23:14:12.911Z,93104.06
2023-01-11T23:16:40.286Z,93096.28
2023-01-11T23:19:08.653Z,93098.72
2023-01-11T23:21:35.576Z,93103.50
2023-01-11T23:24:02.365Z,93106.56
2023-01-11T23:26:29.356Z,93103.97
2023-01-11T23:28:55.747Z,93094.16
2023-01-11T23:31:24.486Z,93090.38
2023-01-11T23:33:56.740Z,93099.59
2023-01-11T23:36:27.066Z,93090.00
2023-01-11T23:38:53.696Z,93095.00
2023-01-11T23:41:39.864Z,93086.19
2023-01-11T23:44:09.243Z,93086.81
2023-01-11T23:46:55.005Z,93089.66
2023-01-11T23:49:21.709Z,93090.38
2023-01-11T23:51:48.479Z,93098.59
2023-01-11T23:54:14.955Z,93093.41
2023-01-11T23:56:41.475Z,93103.22
2023-01-11T23:59:07.992Z,93103.56
